createdAt,value
2019-02-17T10:53:31.751Z,23.45
2019-02-17T10:58:26.832Z,22.67
2019-02-17T11:03:21.850Z,23.97
2019-02-17T11:08:17.264Z,21.20
2019-02-17T11:13:12.297Z,24.93
2019-02-17T11:18:07.490Z,23.97
2019-02-17T11:23:03.073Z,22.67
2019-02-17T11:27:58.592Z,24.37
2019-02-17T11:32:57.934Z,25.97
2019-02-17T11:37:50.658Z,24.40
2019-02-17T11:42:45.677Z,26.07
2019-02-17T11:47:40.625Z,22.47
2019-02-17T11:52:35.649Z,26.33
2019-02-17T11:57:31.112Z,20.80
2019-02-17T12:02:26.419Z,23.20
2019-02-17T12:07:21.377Z,23.47
2019-02-17T12:12:16.669Z,21.83
2019-02-17T12:17:12.849Z,22.70
2019-02-17T12:22:13.610Z,27.10
2019-02-17T12:27:25.938Z,24.73
2019-02-17T12:32:39.318Z,22.10
2019-02-17T12:37:34.304Z,22.90
2019-02-17T12:42:29.944Z,20.97
2019-02-17T12:47:25.384Z,18.87
2019-02-17T12:52:21.516Z,19.93
2019-02-17T12:57:16.501Z,19.80
2019-02-17T13:02:11.556Z,19.57
2019-02-17T13:07:06.853Z,18.43
2019-02-17T13:12:02.161Z,18.33
2019-02-17T13:16:57.079Z,19.97
2019-02-17T13:21:52.071Z,13.73
2019-02-17T13:26:47.290Z,12.97
2019-02-17T13:31:42.684Z,15.00
2019-02-17T13:36:37.672Z,12.37
2019-02-17T13:41:33.026Z,17.50
2019-02-17T13:46:28.637Z,10.37
2019-02-17T13:51:24.030Z,11.30
2019-02-17T13:56:19.455Z,11.93
2019-02-17T14:01:14.438Z,11.37
2019-02-17T14:06:09.668Z,11.40
2019-02-17T14:11:04.739Z,10.47
2019-02-17T14:15:59.837Z,11.67
2019-02-17T14:20:55.221Z,12.93
2019-02-17T14:25:50.219Z,13.53
2019-02-17T14:30:45.554Z,12.90
2019-02-17T14:35:40.607Z,13.87
2019-02-17T14:40:35.687Z,11.37
2019-02-17T14:45:30.765Z,11.53
2019-02-17T14:50:25.753Z,11.80
2019-02-17T14:55:21.129Z,12.20
2019-02-17T15:00:16.274Z,13.67
2019-02-17T15:05:11.660Z,13.33
2019-02-17T15:10:08.789Z,11.90
2019-02-17T15:15:04.318Z,14.57
2019-02-17T15:19:59.586Z,15.60
2019-02-17T15:24:54.579Z,14.33
2019-02-17T15:29:49.658Z,12.73
2019-02-17T15:34:44.683Z,15.27
2019-02-17T15:39:39.665Z,15.93
2019-02-17T15:44:35.679Z,12.67
2019-02-17T15:49:31.328Z,14.30
2019-02-17T15:54:26.375Z,15.70
2019-02-17T15:59:21.447Z,19.93
2019-02-17T16:04:16.412Z,19.83
2019-02-17T16:09:11.414Z,25.07
2019-02-17T16:14:07.213Z,22.37
2019-02-17T16:19:02.495Z,19.97
2019-02-17T16:23:57.510Z,22.90
2019-02-17T16:28:52.535Z,19.17
2019-02-17T16:33:47.476Z,23.40
2019-02-17T16:38:42.803Z,21.03
2019-02-17T16:43:37.799Z,21.30
2019-02-17T16:48:32.719Z,22.43
2019-02-17T16:53:27.735Z,27.67
2019-02-17T16:58:22.818Z,26.13
2019-02-17T17:03:17.840Z,23.60
2019-02-17T17:08:12.788Z,25.47
2019-02-17T17:13:07.809Z,24.27
2019-02-17T17:18:02.848Z,20.10
2019-02-17T17:22:58.279Z,23.93
2019-02-17T17:27:53.463Z,21.03
2019-02-17T17:32:48.574Z,21.20
2019-02-17T17:37:43.739Z,24.27
2019-02-17T17:42:38.825Z,20.03
2019-02-17T17:47:33.835Z,23.53
2019-02-17T17:52:29.324Z,21.40
2019-02-17T17:57:24.756Z,22.00
2019-02-17T18:02:26.571Z,21.50
2019-02-17T18:07:22.971Z,23.73
2019-02-17T18:12:17.915Z,20.17
2019-02-17T18:17:12.879Z,21.40
2019-02-17T18:22:07.988Z,21.13
2019-02-17T18:27:19.200Z,20.97
2019-02-17T18:32:14.909Z,25.40
2019-02-17T18:37:09.882Z,21.60
2019-02-17T18:42:04.865Z,21.80
2019-02-17T18:46:59.809Z,25.30
2019-02-17T18:51:54.745Z,21.97
2019-02-17T18:56:49.661Z,21.80
2019-02-17T19:01:44.966Z,22.30
2019-02-17T19:06:40.163Z,23.37
2019-02-17T19:11:35.537Z,25.13
2019-02-17T19:16:30.453Z,21.40
2019-02-17T19:21:33.570Z,27.00
2019-02-17T19:26:29.657Z,26.27
2019-02-17T19:31:24.798Z,30.33
2019-02-17T19:36:19.879Z,24.00
2019-02-17T19:41:14.822Z,30.43
2019-02-17T19:46:09.780Z,27.93
2019-02-17T19:51:06.056Z,26.20
2019-02-17T19:56:01.219Z,31.73
2019-02-17T20:00:58.316Z,27.53
2019-02-17T20:05:58.046Z,26.17
2019-02-17T20:10:53.356Z,31.60
2019-02-17T20:15:48.350Z,31.40
2019-02-17T20:20:43.485Z,35.97
2019-02-17T20:25:38.747Z,34.97
2019-02-17T20:30:34.163Z,37.27
2019-02-17T20:35:31.598Z,32.00
2019-02-17T20:40:26.520Z,32.57
2019-02-17T20:45:27.502Z,31.10
2019-02-17T20:50:28.227Z,27.83
2019-02-17T20:55:23.149Z,31.40
2019-02-17T21:00:22.483Z,32.33
2019-02-17T21:05:16.799Z,29.43
2019-02-17T21:10:12.991Z,27.17
2019-02-17T21:15:12.000Z,24.87
2019-02-17T21:20:09.167Z,28.53
2019-02-17T21:25:10.445Z,23.70
2019-02-17T21:30:06.332Z,22.70
2019-02-17T21:35:02.285Z,21.27
2019-02-17T21:40:00.530Z,23.93
2019-02-17T21:44:55.455Z,24.03
2019-02-17T21:49:50.375Z,25.63
2019-02-17T21:54:45.330Z,23.60
2019-02-17T21:59:40.234Z,24.07
2019-02-17T22:04:40.997Z,26.43
2019-02-17T22:09:36.031Z,19.80
2019-02-17T22:14:31.225Z,22.67
2019-02-17T22:19:26.203Z,24.17
2019-02-17T22:24:21.127Z,21.43
2019-02-17T22:29:16.374Z,22.13
2019-02-17T22:34:11.439Z,22.33
2019-02-17T22:39:07.215Z,18.67
2019-02-17T22:44:03.137Z,19.77
2019-02-17T22:48:58.147Z,25.43
2019-02-17T22:53:53.443Z,20.27
2019-02-17T22:58:48.508Z,22.23
2019-02-17T23:03:43.663Z,20.27
2019-02-17T23:08:38.897Z,31.87
2019-02-17T23:13:33.834Z,27.00
2019-02-17T23:18:29.954Z,36.10
2019-02-17T23:23:24.986Z,22.10
2019-02-17T23:28:20.349Z,26.17
2019-02-17T23:33:15.276Z,21.60
2019-02-17T23:38:10.311Z,23.90
2019-02-17T23:43:05.538Z,25.73
